sensor_id;sensor_type;location;lat;lon;timestamp;pressure;altitude;pressure_sealevel;temperature;humidity
50592;BME280;36548;50.506;30.834;2022-07-29T00:01:34;100464.36;;;23.31;37.76
50592;BME280;36548;50.506;30.834;2022-07-29T00:02:44;100464.57;;;23.22;37.69
50592;BME280;36548;50.506;30.834;2022-07-29T00:04:11;100467.82;;;23.25;37.67
50592;BME280;36548;50.506;30.834;2022-07-29T00:05:27;100465.72;;;23.36;37.70
50592;BME280;36548;50.506;30.834;2022-07-29T00:06:36;100465.92;;;23.26;37.70
50592;BME280;36548;50.506;30.834;2022-07-29T00:07:52;100463.81;;;23.36;37.75
50592;BME280;36548;50.506;30.834;2022-07-29T00:09:01;100476.03;;;23.25;37.75
50592;BME280;36548;50.506;30.834;2022-07-29T00:10:29;100472.42;;;23.25;37.78
50592;BME280;36548;50.506;30.834;2022-07-29T00:11:44;100470.35;;;23.35;37.77
50592;BME280;36548;50.506;30.834;2022-07-29T00:12:54;100471.58;;;23.24;37.76
50592;BME280;36548;50.506;30.834;2022-07-29T00:14:11;100470.53;;;23.34;37.67
50592;BME280;36548;50.506;30.834;2022-07-29T00:15:21;100479.98;;;23.23;37.61
50592;BME280;36548;50.506;30.834;2022-07-29T00:16:49;100482.02;;;23.21;37.57
50592;BME280;36548;50.506;30.834;2022-07-29T00:18:06;100480.80;;;23.31;37.57
50592;BME280;36548;50.506;30.834;2022-07-29T00:19:15;100478.27;;;23.22;37.42
50592;BME280;36548;50.506;30.834;2022-07-29T00:20:30;100477.54;;;23.28;37.33
50592;BME280;36548;50.506;30.834;2022-07-29T00:21:39;100478.98;;;23.15;37.31
50592;BME280;36548;50.506;30.834;2022-07-29T00:23:15;100478.59;;;23.27;37.29
50592;BME280;36548;50.506;30.834;2022-07-29T00:24:25;100481.36;;;23.19;36.93
50592;BME280;36548;50.506;30.834;2022-07-29T00:25:40;100479.44;;;23.27;36.70
50592;BME280;36548;50.506;30.834;2022-07-29T00:26:50;100484.94;;;23.19;36.82
50592;BME280;36548;50.506;30.834;2022-07-29T00:28:06;100471.73;;;23.31;36.87
50592;BME280;36548;50.506;30.834;2022-07-29T00:29:15;100480.82;;;23.23;36.77
50592;BME280;36548;50.506;30.834;2022-07-29T00:30:42;100480.45;;;23.26;36.52
50592;BME280;36548;50.506;30.834;2022-07-29T00:31:57;100477.18;;;23.39;36.60
50592;BME280;36548;50.506;30.834;2022-07-29T00:33:07;100481.33;;;23.27;36.52
50592;BME280;36548;50.506;30.834;2022-07-29T00:34:24;100474.30;;;23.32;36.52
50592;BME280;36548;50.506;30.834;2022-07-29T00:35:52;100480.16;;;23.21;36.71
50592;BME280;36548;50.506;30.834;2022-07-29T00:37:25;100467.13;;;23.23;36.83
50592;BME280;36548;50.506;30.834;2022-07-29T00:38:35;100462.36;;;23.09;36.78
50592;BME280;36548;50.506;30.834;2022-07-29T00:40:04;100466.48;;;23.05;36.77
50592;BME280;36548;50.506;30.834;2022-07-29T00:41:40;100462.36;;;23.09;36.90
50592;BME280;36548;50.506;30.834;2022-07-29T00:42:52;100461.69;;;22.98;37.02
50592;BME280;36548;50.506;30.834;2022-07-29T00:44:07;100452.25;;;23.09;37.11
50592;BME280;36548;50.506;30.834;2022-07-29T00:45:17;100458.63;;;23.02;37.00
50592;BME280;36548;50.506;30.834;2022-07-29T00:46:44;100459.98;;;23.06;36.97
50592;BME280;36548;50.506;30.834;2022-07-29T00:48:09;100458.77;;;23.17;36.76
50592;BME280;36548;50.506;30.834;2022-07-29T00:49:19;100457.06;;;23.07;36.74
50592;BME280;36548;50.506;30.834;2022-07-29T00:50:35;100453.80;;;23.20;36.70
50592;BME280;36548;50.506;30.834;2022-07-29T00:51:45;100460.29;;;23.11;36.57
50592;BME280;36548;50.506;30.834;2022-07-29T00:53:03;100459.09;;;23.22;36.66
50592;BME280;36548;50.506;30.834;2022-07-29T00:54:12;100453.28;;;23.08;36.52
50592;BME280;36548;50.506;30.834;2022-07-29T00:55:29;100457.55;;;23.19;36.65
50592;BME280;36548;50.506;30.834;2022-07-29T00:56:39;100456.19;;;23.07;36.48
50592;BME280;36548;50.506;30.834;2022-07-29T00:58:07;100453.45;;;23.07;36.52
50592;BME280;36548;50.506;30.834;2022-07-29T00:59:22;100449.34;;;23.19;36.34
50592;BME280;36548;50.506;30.834;2022-07-29T01:00:33;100455.53;;;23.05;36.20
50592;BME280;36548;50.506;30.834;2022-07-29T01:01:48;100449.01;;;23.14;36.28
50592;BME280;36548;50.506;30.834;2022-07-29T01:02:58;100453.64;;;23.05;36.29
50592;BME280;36548;50.506;30.834;2022-07-29T01:04:13;100451.59;;;23.15;36.59
50592;BME280;36548;50.506;30.834;2022-07-29T01:05:26;100450.23;;;23.03;36.71
50592;BME280;36548;50.506;30.834;2022-07-29T01:06:43;100449.34;;;23.11;36.57
50592;BME280;36548;50.506;30.834;2022-07-29T01:07:53;100450.26;;;22.95;36.72
50592;BME280;36548;50.506;30.834;2022-07-29T01:09:22;100455.91;;;22.93;36.87
50592;BME280;36548;50.506;30.834;2022-07-29T01:10:39;100449.03;;;23.06;37.19
50592;BME280;36548;50.506;30.834;2022-07-29T01:11:50;100454.67;;;22.96;37.30
50592;BME280;36548;50.506;30.834;2022-07-29T01:13:08;100442.69;;;23.05;37.41
50592;BME280;36548;50.506;30.834;2022-07-29T01:14:18;100450.44;;;22.93;37.47
50592;BME280;36548;50.506;30.834;2022-07-29T01:15:49;100453.67;;;22.89;37.57
50592;BME280;36548;50.506;30.834;2022-07-29T01:17:33;100448.02;;;22.90;37.49
50592;BME280;36548;50.506;30.834;2022-07-29T01:18:46;100455.94;;;22.77;37.64
50592;BME280;36548;50.506;30.834;2022-07-29T01:20:24;100452.69;;;22.73;37.91
50592;BME280;36548;50.506;30.834;2022-07-29T01:24:55;100459.34;;;22.79;38.34
50592;BME280;36548;50.506;30.834;2022-07-29T01:29:15;100457.16;;;22.66;38.22
50592;BME280;36548;50.506;30.834;2022-07-29T01:30:44;100457.80;;;22.76;38.07
50592;BME280;36548;50.506;30.834;2022-07-29T01:33:38;100464.17;;;22.60;38.11
50592;BME280;36548;50.506;30.834;2022-07-29T01:35:28;100450.84;;;22.66;38.29
50592;BME280;36548;50.506;30.834;2022-07-29T01:39:32;100458.01;;;22.50;38.49
50592;BME280;36548;50.506;30.834;2022-07-29T01:41:05;100465.37;;;22.50;38.53
50592;BME280;36548;50.506;30.834;2022-07-29T01:42:35;100457.33;;;22.56;38.52
50592;BME280;36548;50.506;30.834;2022-07-29T01:43:57;100455.97;;;22.44;38.48
50592;BME280;36548;50.506;30.834;2022-07-29T01:45:15;100460.74;;;22.50;38.53
50592;BME280;36548;50.506;30.834;2022-07-29T01:46:28;100453.94;;;22.38;38.53
50592;BME280;36548;50.506;30.834;2022-07-29T01:48:04;100457.69;;;22.37;38.56
50592;BME280;36548;50.506;30.834;2022-07-29T01:49:43;100453.91;;;22.46;38.55
50592;BME280;36548;50.506;30.834;2022-07-29T01:51:04;100456.81;;;22.36;38.56
50592;BME280;36548;50.506;30.834;2022-07-29T01:52:25;100452.05;;;22.46;38.43
50592;BME280;36548;50.506;30.834;2022-07-29T01:53:46;100457.87;;;22.35;38.72
50592;BME280;36548;50.506;30.834;2022-07-29T01:55:07;100460.42;;;22.45;38.45
50592;BME280;36548;50.506;30.834;2022-07-29T01:56:16;100457.69;;;22.37;38.54
50592;BME280;36548;50.506;30.834;2022-07-29T01:57:46;100454.78;;;22.38;38.65
50592;BME280;36548;50.506;30.834;2022-07-29T01:59:05;100452.71;;;22.48;38.67
50592;BME280;36548;50.506;30.834;2022-07-29T02:00:17;100459.23;;;22.39;38.71
50592;BME280;36548;50.506;30.834;2022-07-29T02:01:34;100446.22;;;22.50;38.88
50592;BME280;36548;50.506;30.834;2022-07-29T02:02:46;100457.16;;;22.41;38.79
50592;BME280;36548;50.506;30.834;2022-07-29T02:04:15;100454.43;;;22.41;38.89
50592;BME280;36548;50.506;30.834;2022-07-29T02:05:34;100453.90;;;22.54;38.90
50592;BME280;36548;50.506;30.834;2022-07-29T02:06:47;100458.04;;;22.42;38.95
50592;BME280;36548;50.506;30.834;2022-07-29T02:08:05;100456.98;;;22.51;39.03
50592;BME280;36548;50.506;30.834;2022-07-29T02:09:16;100453.77;;;22.39;39.18
50592;BME280;36548;50.506;30.834;2022-07-29T02:10:34;100464.70;;;22.47;39.35
50592;BME280;36548;50.506;30.834;2022-07-29T02:11:50;100462.46;;;22.35;39.35
50592;BME280;36548;50.506;30.834;2022-07-29T02:13:20;100472.56;;;22.34;39.17
50592;BME280;36548;50.506;30.834;2022-07-29T02:14:50;100458.36;;;22.39;39.25
50592;BME280;36548;50.506;30.834;2022-07-29T02:16:02;100462.42;;;22.26;39.57
50592;BME280;36548;50.506;30.834;2022-07-29T02:17:45;100460.89;;;22.32;39.42
50592;BME280;36548;50.506;30.834;2022-07-29T02:18:55;100465.16;;;22.18;39.54
50592;BME280;36548;50.506;30.834;2022-07-29T02:20:13;100458.50;;;22.29;39.11
50592;BME280;36548;50.506;30.834;2022-07-29T02:21:24;100460.91;;;22.16;39.28
50592;BME280;36548;50.506;30.834;2022-07-29T02:22:43;100457.30;;;22.23;39.75
50592;BME280;36548;50.506;30.834;2022-07-29T02:23:55;100461.22;;;22.12;39.93
50592;BME280;36548;50.506;30.834;2022-07-29T02:25:15;100464.48;;;22.24;40.11
50592;BME280;36548;50.506;30.834;2022-07-29T02:26:26;100457.47;;;22.13;40.13
50592;BME280;36548;50.506;30.834;2022-07-29T02:27:55;100459.53;;;22.11;40.94
50592;BME280;36548;50.506;30.834;2022-07-29T02:29:12;100458.32;;;22.22;41.45
50592;BME280;36548;50.506;30.834;2022-07-29T02:30:25;100468.92;;;22.09;41.60
50592;BME280;36548;50.506;30.834;2022-07-29T02:31:36;100464.99;;;22.03;41.52
50592;BME280;36548;50.506;30.834;2022-07-29T02:32:53;100458.16;;;22.07;42.01
50592;BME280;36548;50.506;30.834;2022-07-29T02:34:06;100465.99;;;21.94;42.29
50592;BME280;36548;50.506;30.834;2022-07-29T02:35:17;100464.98;;;21.95;42.72
50592;BME280;36548;50.506;30.834;2022-07-29T02:36:34;100463.95;;;22.04;43.34
50592;BME280;36548;50.506;30.834;2022-07-29T02:37:45;100474.86;;;21.96;43.41
50592;BME280;36548;50.506;30.834;2022-07-29T02:39:04;100461.07;;;22.06;43.91
50592;BME280;36548;50.506;30.834;2022-07-29T02:40:20;100459.34;;;21.96;44.03
50592;BME280;36548;50.506;30.834;2022-07-29T02:42:59;100458.82;;;22.01;44.57
50592;BME280;36548;50.506;30.834;2022-07-29T02:44:13;100468.89;;;21.92;44.45
50592;BME280;36548;50.506;30.834;2022-07-29T02:45:29;100463.80;;;22.06;44.42
50592;BME280;36548;50.506;30.834;2022-07-29T02:46:42;100463.09;;;21.95;44.17
50592;BME280;36548;50.506;30.834;2022-07-29T02:48:13;100463.45;;;22.01;43.61
50592;BME280;36548;50.506;30.834;2022-07-29T02:50:53;100463.12;;;22.20;43.50
50592;BME280;36548;50.506;30.834;2022-07-29T02:52:18;100468.41;;;22.13;43.36
50592;BME280;36548;50.506;30.834;2022-07-29T02:53:33;100464.98;;;22.28;43.63
50592;BME280;36548;50.506;30.834;2022-07-29T02:57:47;100461.09;;;22.39;43.61
50592;BME280;36548;50.506;30.834;2022-07-29T02:59:03;100470.66;;;22.35;43.20
50592;BME280;36548;50.506;30.834;2022-07-29T03:00:21;100472.03;;;22.55;42.09
50592;BME280;36548;50.506;30.834;2022-07-29T03:01:34;100475.47;;;22.49;42.02
50592;BME280;36548;50.506;30.834;2022-07-29T03:03:04;100467.58;;;22.54;41.77
50592;BME280;36548;50.506;30.834;2022-07-29T03:04:22;100469.47;;;22.62;41.29
50592;BME280;36548;50.506;30.834;2022-07-29T03:05:32;100479.05;;;22.50;41.09
50592;BME280;36548;50.506;30.834;2022-07-29T03:06:51;100479.71;;;22.60;41.18
50592;BME280;36548;50.506;30.834;2022-07-29T03:08:08;100480.23;;;22.55;41.44
50592;BME280;36548;50.506;30.834;2022-07-29T03:09:32;100477.67;;;22.62;41.12
50592;BME280;36548;50.506;30.834;2022-07-29T03:10:44;100481.07;;;22.72;41.36
50592;BME280;36548;50.506;30.834;2022-07-29T03:12:00;100476.63;;;22.88;41.26
50592;BME280;36548;50.506;30.834;2022-07-29T03:13:11;100473.55;;;22.83;40.95
50592;BME280;36548;50.506;30.834;2022-07-29T03:14:22;100484.66;;;22.89;40.50
50592;BME280;36548;50.506;30.834;2022-07-29T03:15:38;100469.88;;;23.07;40.08
50592;BME280;36548;50.506;30.834;2022-07-29T03:16:48;100474.87;;;23.03;40.12
50592;BME280;36548;50.506;30.834;2022-07-29T03:18:06;100480.82;;;23.23;39.68
50592;BME280;36548;50.506;30.834;2022-07-29T03:19:17;100473.80;;;23.21;39.35
50592;BME280;36548;50.506;30.834;2022-07-29T03:20:33;100473.20;;;23.42;39.14
50592;BME280;36548;50.506;30.834;2022-07-29T03:21:44;100476.64;;;23.44;39.06
50592;BME280;36548;50.506;30.834;2022-07-29T03:23:21;100472.87;;;23.76;38.63
50592;BME280;36548;50.506;30.834;2022-07-29T03:24:34;100477.14;;;23.79;38.07
50592;BME280;36548;50.506;30.834;2022-07-29T03:25:45;100474.52;;;23.94;37.72
50592;BME280;36548;50.506;30.834;2022-07-29T03:27:02;100474.54;;;24.17;37.43
50592;BME280;36548;50.506;30.834;2022-07-29T03:28:12;100475.38;;;24.17;37.19
50592;BME280;36548;50.506;30.834;2022-07-29T03:29:28;100469.02;;;24.40;36.84
50592;BME280;36548;50.506;30.834;2022-07-29T03:30:39;100474.70;;;24.39;36.66
50592;BME280;36548;50.506;30.834;2022-07-29T03:32:08;100480.98;;;24.47;36.69
50592;BME280;36548;50.506;30.834;2022-07-29T03:33:24;100469.52;;;24.67;37.03
50592;BME280;36548;50.506;30.834;2022-07-29T03:34:33;100477.61;;;24.60;37.95
50592;BME280;36548;50.506;30.834;2022-07-29T03:35:42;100482.94;;;24.62;38.34
50592;BME280;36548;50.506;30.834;2022-07-29T03:36:57;100473.95;;;24.68;38.78
50592;BME280;36548;50.506;30.834;2022-07-29T03:38:07;100478.48;;;24.61;38.90
50592;BME280;36548;50.506;30.834;2022-07-29T03:39:31;100465.28;;;24.79;38.83
50592;BME280;36548;50.506;30.834;2022-07-29T03:40:46;100477.75;;;24.82;38.27
50592;BME280;36548;50.506;30.834;2022-07-29T03:42:04;100471.56;;;25.33;36.50
50592;BME280;36548;50.506;30.834;2022-07-29T03:43:15;100471.23;;;25.73;35.69
50592;BME280;36548;50.506;30.834;2022-07-29T03:44:45;100476.74;;;26.31;34.78
50592;BME280;36548;50.506;30.834;2022-07-29T03:46:04;100479.49;;;27.09;33.03
50592;BME280;36548;50.506;30.834;2022-07-29T03:47:18;100477.91;;;27.28;32.56
50592;BME280;36548;50.506;30.834;2022-07-29T03:48:39;100479.84;;;27.76;31.53
50592;BME280;36548;50.506;30.834;2022-07-29T03:49:52;100482.65;;;27.89;31.36
50592;BME280;36548;50.506;30.834;2022-07-29T03:51:20;100485.90;;;28.06;30.80
50592;BME280;36548;50.506;30.834;2022-07-29T03:52:32;100485.47;;;28.10;29.95
50592;BME280;36548;50.506;30.834;2022-07-29T03:53:56;100483.80;;;28.22;30.27
50592;BME280;36548;50.506;30.834;2022-07-29T03:55:07;100490.59;;;28.19;30.22
50592;BME280;36548;50.506;30.834;2022-07-29T03:56:24;100492.34;;;28.40;30.11
50592;BME280;36548;50.506;30.834;2022-07-29T03:57:36;100492.96;;;28.43;29.93
50592;BME280;36548;50.506;30.834;2022-07-29T03:58:53;100475.17;;;28.65;29.33
50592;BME280;36548;50.506;30.834;2022-07-29T04:00:04;100481.07;;;28.62;29.47
50592;BME280;36548;50.506;30.834;2022-07-29T04:01:33;100484.30;;;28.66;29.32
50592;BME280;36548;50.506;30.834;2022-07-29T04:02:48;100477.69;;;28.80;28.90
50592;BME280;36548;50.506;30.834;2022-07-29T04:04:00;100476.23;;;28.71;29.26
50592;BME280;36548;50.506;30.834;2022-07-29T04:05:22;100478.78;;;28.79;29.21
50592;BME280;36548;50.506;30.834;2022-07-29T04:06:40;100485.36;;;28.71;29.13
50592;BME280;36548;50.506;30.834;2022-07-29T04:07:56;100485.36;;;28.85;29.03
50592;BME280;36548;50.506;30.834;2022-07-29T04:09:05;100488.56;;;28.75;29.16
50592;BME280;36548;50.506;30.834;2022-07-29T04:10:22;100486.20;;;28.85;29.25
50592;BME280;36548;50.506;30.834;2022-07-29T04:11:38;100490.88;;;28.71;29.38
50592;BME280;36548;50.506;30.834;2022-07-29T04:13:07;100487.06;;;28.66;29.56
50592;BME280;36548;50.506;30.834;2022-07-29T04:15:47;100493.39;;;28.60;29.40
50592;BME280;36548;50.506;30.834;2022-07-29T04:16:57;100494.67;;;28.44;29.51
50592;BME280;36548;50.506;30.834;2022-07-29T04:18:13;100491.48;;;28.47;29.43
50592;BME280;36548;50.506;30.834;2022-07-29T04:19:22;100496.58;;;28.36;29.61
50592;BME280;36548;50.506;30.834;2022-07-29T04:20:37;100487.02;;;28.46;29.57
50592;BME280;36548;50.506;30.834;2022-07-29T04:21:46;100493.82;;;28.36;29.56
50592;BME280;36548;50.506;30.834;2022-07-29T04:23:14;100494.03;;;28.35;29.67
50592;BME280;36548;50.506;30.834;2022-07-29T04:24:30;100499.14;;;28.45;29.52
50592;BME280;36548;50.506;30.834;2022-07-29T04:25:41;100495.09;;;28.34;29.60
50592;BME280;36548;50.506;30.834;2022-07-29T04:26:57;100491.91;;;28.44;29.52
50592;BME280;36548;50.506;30.834;2022-07-29T04:28:07;100499.11;;;28.31;29.58
50592;BME280;36548;50.506;30.834;2022-07-29T04:29:22;100489.80;;;28.39;29.79
50592;BME280;36548;50.506;30.834;2022-07-29T04:30:34;100504.84;;;28.30;29.70
50592;BME280;36548;50.506;30.834;2022-07-29T04:32:01;100499.54;;;28.28;29.97
50592;BME280;36548;50.506;30.834;2022-07-29T04:33:17;100497.84;;;28.34;30.32
50592;BME280;36548;50.506;30.834;2022-07-29T04:34:27;100501.45;;;28.21;30.71
50592;BME280;36548;50.506;30.834;2022-07-29T04:35:43;100496.12;;;28.26;30.75
50592;BME280;36548;50.506;30.834;2022-07-29T04:36:54;100494.41;;;28.12;30.70
50592;BME280;36548;50.506;30.834;2022-07-29T04:38:10;100488.91;;;28.18;31.04
50592;BME280;36548;50.506;30.834;2022-07-29T04:39:22;100498.41;;;28.02;30.92
50592;BME280;36548;50.506;30.834;2022-07-29T04:40:37;100489.51;;;28.00;31.83
50592;BME280;36548;50.506;30.834;2022-07-29T04:41:49;100491.56;;;27.85;32.41
50592;BME280;36548;50.506;30.834;2022-07-29T04:43:17;100494.31;;;27.85;32.35
50592;BME280;36548;50.506;30.834;2022-07-29T04:44:32;100492.05;;;28.02;31.89
50592;BME280;36548;50.506;30.834;2022-07-29T04:45:43;100482.67;;;27.96;31.61
50592;BME280;36548;50.506;30.834;2022-07-29T04:47:00;100484.84;;;28.08;31.34
50592;BME280;36548;50.506;30.834;2022-07-29T04:48:11;100490.73;;;27.98;31.35
50592;BME280;36548;50.506;30.834;2022-07-29T04:49:26;100480.38;;;28.06;31.59
50592;BME280;36548;50.506;30.834;2022-07-29T04:50:38;100480.36;;;28.00;31.70
50592;BME280;36548;50.506;30.834;2022-07-29T04:52:06;100484.02;;;28.07;31.45
50592;BME280;36548;50.506;30.834;2022-07-29T04:53:22;100484.03;;;28.27;31.36
50592;BME280;36548;50.506;30.834;2022-07-29T04:54:32;100484.44;;;28.17;31.37
50592;BME280;36548;50.506;30.834;2022-07-29T04:55:48;100484.87;;;28.28;30.83
50592;BME280;36548;50.506;30.834;2022-07-29T04:56:58;100475.93;;;28.12;30.90
50592;BME280;36548;50.506;30.834;2022-07-29T04:58:07;100481.66;;;28.11;31.05
50592;BME280;36548;50.506;30.834;2022-07-29T04:59:24;100468.09;;;28.16;31.16
50592;BME280;36548;50.506;30.834;2022-07-29T05:00:35;100475.73;;;28.07;31.67
50592;BME280;36548;50.506;30.834;2022-07-29T05:01:46;100478.28;;;28.09;31.90
50592;BME280;36548;50.506;30.834;2022-07-29T05:03:01;100473.42;;;28.24;31.30
50592;BME280;36548;50.506;30.834;2022-07-29T05:04:10;100468.09;;;28.16;31.04
50592;BME280;36548;50.506;30.834;2022-07-29T05:05:25;100474.69;;;28.21;31.44
50592;BME280;36548;50.506;30.834;2022-07-29T05:06:36;100479.34;;;28.14;31.49
50592;BME280;36548;50.506;30.834;2022-07-29T05:08:03;100482.95;;;28.15;31.67
50592;BME280;36548;50.506;30.834;2022-07-29T05:09:19;100468.32;;;28.34;31.42
50592;BME280;36548;50.506;30.834;2022-07-29T05:10:30;100479.16;;;28.29;31.31
50592;BME280;36548;50.506;30.834;2022-07-29T05:11:39;100474.71;;;28.35;30.97
50592;BME280;36548;50.506;30.834;2022-07-29T05:12:50;100479.59;;;28.39;30.50
50592;BME280;36548;50.506;30.834;2022-07-29T05:14:01;100481.48;;;28.46;30.43
50592;BME280;36548;50.506;30.834;2022-07-29T05:15:16;100467.48;;;28.61;30.66
50592;BME280;36548;50.506;30.834;2022-07-29T05:16:27;100483.21;;;28.60;30.84
50592;BME280;36548;50.506;30.834;2022-07-29T05:17:44;100466.02;;;28.85;30.70
50592;BME280;36548;50.506;30.834;2022-07-29T05:18:54;100472.38;;;28.85;30.54
50592;BME280;36548;50.506;30.834;2022-07-29T05:20:10;100470.44;;;29.06;30.34
50592;BME280;36548;50.506;30.834;2022-07-29T05:21:20;100472.16;;;29.00;30.19
50592;BME280;36548;50.506;30.834;2022-07-29T05:22:29;100473.42;;;29.04;30.10
50592;BME280;36548;50.506;30.834;2022-07-29T05:23:41;100468.30;;;29.08;29.96
50592;BME280;36548;50.506;30.834;2022-07-29T05:24:56;100462.98;;;29.27;30.02
50592;BME280;36548;50.506;30.834;2022-07-29T05:26:06;100465.30;;;29.16;29.29
50592;BME280;36548;50.506;30.834;2022-07-29T05:27:22;100469.78;;;29.11;29.31
50592;BME280;36548;50.506;30.834;2022-07-29T05:28:35;100475.98;;;28.86;29.61
50592;BME280;36548;50.506;30.834;2022-07-29T05:29:51;100477.91;;;28.79;29.75
50592;BME280;36548;50.506;30.834;2022-07-29T05:31:01;100481.28;;;28.54;30.21
50592;BME280;36548;50.506;30.834;2022-07-29T05:32:28;100481.71;;;28.51;30.55
50592;BME280;36548;50.506;30.834;2022-07-29T05:33:43;100478.74;;;28.59;30.53
50592;BME280;36548;50.506;30.834;2022-07-29T05:34:52;100487.22;;;28.44;30.83
50592;BME280;36548;50.506;30.834;2022-07-29T05:36:08;100482.16;;;28.54;30.88
50592;BME280;36548;50.506;30.834;2022-07-29T05:37:17;100486.40;;;28.50;30.86
50592;BME280;36548;50.506;30.834;2022-07-29T05:38:34;100476.63;;;28.61;30.91
50592;BME280;36548;50.506;30.834;2022-07-29T05:39:45;100486.80;;;28.54;30.68
50592;BME280;36548;50.506;30.834;2022-07-29T05:41:13;100485.97;;;28.53;30.63
50592;BME280;36548;50.506;30.834;2022-07-29T05:42:28;100479.00;;;28.64;30.46
50592;BME280;36548;50.506;30.834;2022-07-29T05:43:38;100484.69;;;28.49;30.22
50592;BME280;36548;50.506;30.834;2022-07-29T05:44:53;100488.73;;;28.53;30.52
50592;BME280;36548;50.506;30.834;2022-07-29T05:46:02;100487.22;;;28.44;30.67
50592;BME280;36548;50.506;30.834;2022-07-29T05:47:29;100485.34;;;28.51;30.67
50592;BME280;36548;50.506;30.834;2022-07-29T05:48:45;100475.58;;;28.69;30.37
50592;BME280;36548;50.506;30.834;2022-07-29T05:49:54;100483.64;;;28.57;30.23
50592;BME280;36548;50.506;30.834;2022-07-29T05:51:09;100476.45;;;28.63;30.04
50592;BME280;36548;50.506;30.834;2022-07-29T05:52:18;100482.98;;;28.48;30.21
50592;BME280;36548;50.506;30.834;2022-07-29T05:53:29;100484.47;;;28.51;30.21
50592;BME280;36548;50.506;30.834;2022-07-29T05:54:44;100480.23;;;28.62;30.12
50592;BME280;36548;50.506;30.834;2022-07-29T05:55:55;100493.81;;;28.50;30.21
50592;BME280;36548;50.506;30.834;2022-07-29T05:57:08;100493.19;;;28.48;30.03
50592;BME280;36548;50.506;30.834;2022-07-29T05:58:18;100489.16;;;28.50;30.02
50592;BME280;36548;50.506;30.834;2022-07-29T05:59:37;100487.28;;;28.71;30.05
50592;BME280;36548;50.506;30.834;2022-07-29T06:00:46;100493.20;;;28.68;30.12
50592;BME280;36548;50.506;30.834;2022-07-29T06:01:57;100494.70;;;28.77;30.06
50592;BME280;36548;50.506;30.834;2022-07-29T06:03:13;100490.44;;;29.01;30.11
50592;BME280;36548;50.506;30.834;2022-07-29T06:04:24;100495.10;;;29.01;29.68
50592;BME280;36548;50.506;30.834;2022-07-29T06:05:34;100485.53;;;29.10;29.46
50592;BME280;36548;50.506;30.834;2022-07-29T06:06:43;100490.61;;;29.20;29.61
50592;BME280;36548;50.506;30.834;2022-07-29T06:08:05;100487.84;;;29.33;29.43
50592;BME280;36548;50.506;30.834;2022-07-29T06:09:18;100493.39;;;29.27;29.23
50592;BME280;36548;50.506;30.834;2022-07-29T06:10:28;100494.44;;;29.32;29.02
50592;BME280;36548;50.506;30.834;2022-07-29T06:11:44;100484.78;;;29.55;28.75
50592;BME280;36548;50.506;30.834;2022-07-29T06:12:54;100492.23;;;29.54;28.50
50592;BME280;36548;50.506;30.834;2022-07-29T06:14:04;100494.53;;;29.64;28.48
50592;BME280;36548;50.506;30.834;2022-07-29T06:15:20;100492.75;;;29.83;28.59
50592;BME280;36548;50.506;30.834;2022-07-29T06:16:33;100505.10;;;29.81;28.68
50592;BME280;36548;50.506;30.834;2022-07-29T06:17:43;100503.80;;;29.90;28.60
50592;BME280;36548;50.506;30.834;2022-07-29T06:18:55;100502.89;;;30.03;28.59
50592;BME280;36548;50.506;30.834;2022-07-29T06:20:06;100498.35;;;30.15;28.11
50592;BME280;36548;50.506;30.834;2022-07-29T06:21:21;100486.29;;;30.35;27.64
50592;BME280;36548;50.506;30.834;2022-07-29T06:22:31;100491.41;;;30.31;27.69
50592;BME280;36548;50.506;30.834;2022-07-29T06:23:42;100493.12;;;30.32;27.30
50592;BME280;36548;50.506;30.834;2022-07-29T06:24:51;100493.12;;;30.32;27.22
50592;BME280;36548;50.506;30.834;2022-07-29T06:26:06;100483.66;;;30.47;27.16
50592;BME280;36548;50.506;30.834;2022-07-29T06:27:15;100492.20;;;30.38;26.98
50592;BME280;36548;50.506;30.834;2022-07-29T06:28:25;100488.14;;;30.41;26.72
50592;BME280;36548;50.506;30.834;2022-07-29T06:29:34;100487.91;;;30.49;26.61
50592;BME280;36548;50.506;30.834;2022-07-29T06:30:45;100491.00;;;30.59;26.51
50592;BME280;36548;50.506;30.834;2022-07-29T06:32:00;100480.59;;;30.80;26.02
50592;BME280;36548;50.506;30.834;2022-07-29T06:33:16;100489.83;;;30.74;25.82
50592;BME280;36548;50.506;30.834;2022-07-29T06:34:49;100494.56;;;30.92;25.90
50592;BME280;36548;50.506;30.834;2022-07-29T06:35:59;100486.55;;;30.84;25.82
50592;BME280;36548;50.506;30.834;2022-07-29T06:37:08;100488.62;;;30.88;25.65
50592;BME280;36548;50.506;30.834;2022-07-29T06:38:19;100492.62;;;30.92;25.48
50592;BME280;36548;50.506;30.834;2022-07-29T06:39:31;100486.42;;;30.97;25.57
50592;BME280;36548;50.506;30.834;2022-07-29T06:40:46;100485.40;;;31.17;25.66
50592;BME280;36548;50.506;30.834;2022-07-29T06:42:15;100482.62;;;31.17;25.59
50592;BME280;36548;50.506;30.834;2022-07-29T06:43:24;100491.08;;;31.22;25.50
50592;BME280;36548;50.506;30.834;2022-07-29T06:44:39;100483.45;;;31.36;25.60
50592;BME280;36548;50.506;30.834;2022-07-29T06:45:49;100486.70;;;31.33;25.36
50592;BME280;36548;50.506;30.834;2022-07-29T06:47:00;100487.33;;;31.35;25.02
50592;BME280;36548;50.506;30.834;2022-07-29T06:48:11;100479.01;;;31.35;24.91
50592;BME280;36548;50.506;30.834;2022-07-29T06:49:26;100481.53;;;31.55;25.20
50592;BME280;36548;50.506;30.834;2022-07-29T06:50:37;100484.14;;;31.50;25.13
50592;BME280;36548;50.506;30.834;2022-07-29T06:51:47;100479.70;;;31.49;25.12